sensor_id;sensor_type;location;lat;lon;timestamp;pressure;altitude;pressure_sealevel;temperature;humidity
70506;BME280;58032;49.820;6.274;2023-06-10T00:02:14;97312.47;;;16.55;100.00
70506;BME280;58032;49.820;6.274;2023-06-10T00:04:43;97314.81;;;16.57;100.00
70506;BME280;58032;49.820;6.274;2023-06-10T00:07:10;97321.03;;;16.61;100.00
70506;BME280;58032;49.820;6.274;2023-06-10T00:09:37;97319.75;;;16.62;100.00
70506;BME280;58032;49.820;6.274;2023-06-10T00:12:05;97311.22;;;16.62;100.00
70506;BME280;58032;49.820;6.274;2023-06-10T00:14:35;97314.56;;;16.55;100.00
70506;BME280;58032;49.820;6.274;2023-06-10T00:17:02;97319.47;;;16.54;100.00
70506;BME280;58032;49.820;6.274;2023-06-10T00:19:29;97313.75;;;16.49;100.00
70506;BME280;58032;49.820;6.274;2023-06-10T00:21:58;97315.53;;;16.46;100.00
70506;BME280;58032;49.820;6.274;2023-06-10T00:24:25;97307.81;;;16.52;100.00
70506;BME280;58032;49.820;6.274;2023-06-10T00:26:52;97314.03;;;16.56;100.00
70506;BME280;58032;49.820;6.274;2023-06-10T00:29:19;97316.88;;;16.56;100.00
70506;BME280;58032;49.820;6.274;2023-06-10T00:31:46;97313.50;;;16.52;100.00
70506;BME280;58032;49.820;6.274;2023-06-10T00:34:13;97317.16;;;16.58;100.00
70506;BME280;58032;49.820;6.274;2023-06-10T00:36:40;97311.44;;;16.53;100.00
70506;BME280;58032;49.820;6.274;2023-06-10T00:39:07;97315.53;;;16.46;100.00
70506;BME280;58032;49.820;6.274;2023-06-10T00:41:36;97314.97;;;16.42;100.00
70506;BME280;58032;49.820;6.274;2023-06-10T00:44:03;97307.19;;;16.37;100.00
70506;BME280;58032;49.820;6.274;2023-06-10T00:46:30;97307.72;;;16.35;100.00
70506;BME280;58032;49.820;6.274;2023-06-10T00:48:59;97304.09;;;16.35;100.00
70506;BME280;58032;49.820;6.274;2023-06-10T00:51:27;97307.72;;;16.35;100.00
70506;BME280;58032;49.820;6.274;2023-06-10T00:53:54;97309.00;;;16.34;100.00
70506;BME280;58032;49.820;6.274;2023-06-10T00:56:21;97303.56;;;16.30;100.00
70506;BME280;58032;49.820;6.274;2023-06-10T00:58:48;97308.72;;;16.32;100.00
70506;BME280;58032;49.820;6.274;2023-06-10T01:01:17;97316.47;;;16.32;100.00
70506;BME280;58032;49.820;6.274;2023-06-10T01:03:44;97312.31;;;16.33;100.00
70506;BME280;58032;49.820;6.274;2023-06-10T01:06:29;97320.59;;;16.30;100.00
70506;BME280;58032;49.820;6.274;2023-06-10T01:09:08;97318.81;;;16.33;100.00
70506;BME280;58032;49.820;6.274;2023-06-10T01:11:46;97313.41;;;16.35;100.00
70506;BME280;58032;49.820;6.274;2023-06-10T01:14:14;97314.34;;;16.26;100.00
70506;BME280;58032;49.820;6.274;2023-06-10T01:16:44;97317.19;;;16.26;100.00
70506;BME280;58032;49.820;6.274;2023-06-10T01:19:12;97323.91;;;16.29;100.00
70506;BME280;58032;49.820;6.274;2023-06-10T01:21:44;97320.59;;;16.30;100.00
70506;BME280;58032;49.820;6.274;2023-06-10T01:24:18;97326.75;;;16.29;100.00
70506;BME280;58032;49.820;6.274;2023-06-10T01:26:48;97324.94;;;16.26;100.00
70506;BME280;58032;49.820;6.274;2023-06-10T01:29:21;97326.00;;;16.28;100.00
70506;BME280;58032;49.820;6.274;2023-06-10T01:32:03;97332.44;;;16.23;100.00
70506;BME280;58032;49.820;6.274;2023-06-10T01:34:33;97329.06;;;16.25;100.00
70506;BME280;58032;49.820;6.274;2023-06-10T01:37:03;97332.44;;;16.23;100.00
70506;BME280;58032;49.820;6.274;2023-06-10T01:39:31;97329.31;;;16.21;100.00
70506;BME280;58032;49.820;6.274;2023-06-10T01:41:59;97341.41;;;16.16;100.00
70506;BME280;58032;49.820;6.274;2023-06-10T01:44:27;97333.66;;;16.17;100.00
70506;BME280;58032;49.820;6.274;2023-06-10T01:46:54;97337.22;;;16.11;100.00
70506;BME280;58032;49.820;6.274;2023-06-10T01:49:21;97340.31;;;16.08;100.00
70506;BME280;58032;49.820;6.274;2023-06-10T01:51:50;97339.50;;;16.07;100.00
70506;BME280;58032;49.820;6.274;2023-06-10T01:54:17;97343.16;;;16.08;100.00
70506;BME280;58032;49.820;6.274;2023-06-10T01:56:45;97341.00;;;16.03;100.00
70506;BME280;58032;49.820;6.274;2023-06-10T01:59:12;97344.66;;;16.03;100.00
70506;BME280;58032;49.820;6.274;2023-06-10T02:01:39;97340.53;;;16.04;100.00
70506;BME280;58032;49.820;6.274;2023-06-10T02:04:09;97342.81;;;16.00;100.00
70506;BME280;58032;49.820;6.274;2023-06-10T02:06:36;97347.97;;;16.02;100.00
70506;BME280;58032;49.820;6.274;2023-06-10T02:09:04;97348.47;;;16.00;100.00
70506;BME280;58032;49.820;6.274;2023-06-10T02:11:31;97349.28;;;16.01;100.00
70506;BME280;58032;49.820;6.274;2023-06-10T02:13:58;97347.66;;;15.94;100.00
70506;BME280;58032;49.820;6.274;2023-06-10T02:16:24;97341.44;;;15.90;100.00
70506;BME280;58032;49.820;6.274;2023-06-10T02:18:54;97353.63;;;15.96;100.00
70506;BME280;58032;49.820;6.274;2023-06-10T02:21:21;97360.06;;;15.96;100.00
70506;BME280;58032;49.820;6.274;2023-06-10T02:23:48;97352.56;;;15.93;100.00
70506;BME280;58032;49.820;6.274;2023-06-10T02:26:15;97355.41;;;15.93;100.00
70506;BME280;58032;49.820;6.274;2023-06-10T02:28:43;97347.81;;;15.85;100.00
70506;BME280;58032;49.820;6.274;2023-06-10T02:31:10;97359.69;;;15.83;100.00
70506;BME280;58032;49.820;6.274;2023-06-10T02:33:37;97348.53;;;15.79;100.00
70506;BME280;58032;49.820;6.274;2023-06-10T02:36:07;97352.41;;;15.82;100.00
70506;BME280;58032;49.820;6.274;2023-06-10T02:38:34;97354.94;;;15.74;100.00
70506;BME280;58032;49.820;6.274;2023-06-10T02:41:01;97355.09;;;15.65;100.00
70506;BME280;58032;49.820;6.274;2023-06-10T02:43:28;97355.78;;;15.60;100.00
70506;BME280;58032;49.820;6.274;2023-06-10T02:45:55;97351.91;;;15.57;100.00
70506;BME280;58032;49.820;6.274;2023-06-10T02:48:26;97356.03;;;15.56;100.00
70506;BME280;58032;49.820;6.274;2023-06-10T02:50:54;97351.91;;;15.57;100.00
70506;BME280;58032;49.820;6.274;2023-06-10T02:53:29;97362.28;;;15.60;100.00
70506;BME280;58032;49.820;6.274;2023-06-10T02:56:03;97351.66;;;15.55;100.00
70506;BME280;58032;49.820;6.274;2023-06-10T02:58:31;97357.25;;;15.49;100.00
70506;BME280;58032;49.820;6.274;2023-06-10T03:00:58;97361.44;;;15.33;100.00
70506;BME280;58032;49.820;6.274;2023-06-10T03:03:27;97360.47;;;15.16;100.00
70506;BME280;58032;49.820;6.274;2023-06-10T03:06:00;97362.88;;;15.23;100.00
70506;BME280;58032;49.820;6.274;2023-06-10T03:08:28;97368.97;;;15.37;100.00
70506;BME280;58032;49.820;6.274;2023-06-10T03:10:58;97372.53;;;15.31;100.00
70506;BME280;58032;49.820;6.274;2023-06-10T03:13:25;97370.66;;;15.28;100.00
70506;BME280;58032;49.820;6.274;2023-06-10T03:15:52;97370.13;;;15.24;100.00
70506;BME280;58032;49.820;6.274;2023-06-10T03:18:25;97370.66;;;15.28;100.00
70506;BME280;58032;49.820;6.274;2023-06-10T03:20:56;97370.13;;;15.24;100.00
70506;BME280;58032;49.820;6.274;2023-06-10T03:23:25;97368.06;;;15.25;100.00
70506;BME280;58032;49.820;6.274;2023-06-10T03:25:53;97371.66;;;15.25;100.00
70506;BME280;58032;49.820;6.274;2023-06-10T03:28:22;97374.00;;;15.27;100.00
70506;BME280;58032;49.820;6.274;2023-06-10T03:30:50;97376.63;;;15.30;100.00
70506;BME280;58032;49.820;6.274;2023-06-10T03:33:21;97383.16;;;15.37;100.00
70506;BME280;58032;49.820;6.274;2023-06-10T03:35:49;97383.78;;;15.46;100.00
70506;BME280;58032;49.820;6.274;2023-06-10T03:38:16;97381.47;;;15.71;100.00
70506;BME280;58032;49.820;6.274;2023-06-10T03:40:43;97379.25;;;15.81;100.00
70506;BME280;58032;49.820;6.274;2023-06-10T03:43:10;97388.19;;;15.94;100.00
70506;BME280;58032;49.820;6.274;2023-06-10T03:45:37;97383.34;;;16.01;100.00
70506;BME280;58032;49.820;6.274;2023-06-10T03:48:05;97377.47;;;16.10;100.00
70506;BME280;58032;49.820;6.274;2023-06-10T03:50:41;97380.00;;;16.02;100.00
70506;BME280;58032;49.820;6.274;2023-06-10T03:53:08;97392.13;;;16.03;100.00
70506;BME280;58032;49.820;6.274;2023-06-10T03:55:37;97386.59;;;15.88;100.00
70506;BME280;58032;49.820;6.274;2023-06-10T03:58:04;97386.59;;;15.88;100.00
70506;BME280;58032;49.820;6.274;2023-06-10T04:00:31;97391.69;;;15.83;100.00
70506;BME280;58032;49.820;6.274;2023-06-10T04:03:08;97396.88;;;15.85;100.00
70506;BME280;58032;49.820;6.274;2023-06-10T04:05:41;97392.59;;;15.95;100.00
70506;BME280;58032;49.820;6.274;2023-06-10T04:08:10;97400.84;;;15.93;100.00
70506;BME280;58032;49.820;6.274;2023-06-10T04:10:37;97399.31;;;15.98;100.00
70506;BME280;58032;49.820;6.274;2023-06-10T04:13:04;97395.03;;;16.08;100.00
70506;BME280;58032;49.820;6.274;2023-06-10T04:15:37;97406.34;;;16.03;100.00
70506;BME280;58032;49.820;6.274;2023-06-10T04:18:08;97403.44;;;16.23;100.00
70506;BME280;58032;49.820;6.274;2023-06-10T04:20:35;97398.47;;;16.18;100.00
70506;BME280;58032;49.820;6.274;2023-06-10T04:23:02;97397.22;;;16.51;100.00
70506;BME280;58032;49.820;6.274;2023-06-10T04:25:30;97394.47;;;16.68;100.00
70506;BME280;58032;49.820;6.274;2023-06-10T04:27:57;97393.94;;;16.64;100.00
70506;BME280;58032;49.820;6.274;2023-06-10T04:30:25;97405.56;;;16.60;100.00
70506;BME280;58032;49.820;6.274;2023-06-10T04:32:52;97399.53;;;16.53;100.00
70506;BME280;58032;49.820;6.274;2023-06-10T04:35:19;97394.56;;;16.80;100.00
70506;BME280;58032;49.820;6.274;2023-06-10T04:37:47;97398.50;;;18.48;100.00
70506;BME280;58032;49.820;6.274;2023-06-10T04:40:15;97398.72;;;19.13;100.00
70506;BME280;58032;49.820;6.274;2023-06-10T04:42:43;97399.72;;;19.86;100.00
70506;BME280;58032;49.820;6.274;2023-06-10T04:45:10;97394.94;;;20.11;100.00
70506;BME280;58032;49.820;6.274;2023-06-10T04:47:38;97395.09;;;19.07;100.00
70506;BME280;58032;49.820;6.274;2023-06-10T04:50:06;97397.72;;;18.37;100.00
70506;BME280;58032;49.820;6.274;2023-06-10T04:52:33;97405.13;;;20.01;100.00
70506;BME280;58032;49.820;6.274;2023-06-10T04:55:00;97392.56;;;21.07;100.00
70506;BME280;58032;49.820;6.274;2023-06-10T04:57:27;97390.09;;;21.41;100.00
70506;BME280;58032;49.820;6.274;2023-06-10T04:59:54;97388.75;;;22.38;100.00
70506;BME280;58032;49.820;6.274;2023-06-10T05:02:21;97399.59;;;22.12;100.00
70506;BME280;58032;49.820;6.274;2023-06-10T05:04:48;97402.41;;;21.55;100.00
70506;BME280;58032;49.820;6.274;2023-06-10T05:07:15;97399.31;;;19.65;100.00
70506;BME280;58032;49.820;6.274;2023-06-10T05:09:42;97391.03;;;19.61;100.00
70506;BME280;58032;49.820;6.274;2023-06-10T05:12:09;97399.78;;;19.04;100.00
70506;BME280;58032;49.820;6.274;2023-06-10T05:14:36;97401.06;;;19.14;100.00
70506;BME280;58032;49.820;6.274;2023-06-10T05:17:03;97408.34;;;18.25;100.00
70506;BME280;58032;49.820;6.274;2023-06-10T05:19:32;97411.22;;;18.53;100.00
70506;BME280;58032;49.820;6.274;2023-06-10T05:21:59;97406.56;;;18.50;100.00
70506;BME280;58032;49.820;6.274;2023-06-10T05:24:26;97409.94;;;18.60;100.00
70506;BME280;58032;49.820;6.274;2023-06-10T05:26:53;97411.47;;;18.83;100.00
70506;BME280;58032;49.820;6.274;2023-06-10T05:29:20;97411.69;;;18.86;100.00
70506;BME280;58032;49.820;6.274;2023-06-10T05:31:46;97411.19;;;18.76;100.00
70506;BME280;58032;49.820;6.274;2023-06-10T05:34:13;97413.00;;;19.07;100.00
70506;BME280;58032;49.820;6.274;2023-06-10T05:36:40;97407.78;;;19.23;100.00
70506;BME280;58032;49.820;6.274;2023-06-10T05:39:09;97409.63;;;19.09;100.00
70506;BME280;58032;49.820;6.274;2023-06-10T05:41:36;97409.56;;;19.32;100.00
70506;BME280;58032;49.820;6.274;2023-06-10T05:44:03;97411.22;;;19.74;100.00
70506;BME280;58032;49.820;6.274;2023-06-10T05:46:31;97417.41;;;19.78;100.00
70506;BME280;58032;49.820;6.274;2023-06-10T05:48:58;97408.94;;;20.15;100.00
70506;BME280;58032;49.820;6.274;2023-06-10T05:51:25;97415.31;;;19.85;100.00
70506;BME280;58032;49.820;6.274;2023-06-10T05:53:52;97410.38;;;19.26;100.00
70506;BME280;58032;49.820;6.274;2023-06-10T05:56:19;97406.16;;;19.44;100.00
70506;BME280;58032;49.820;6.274;2023-06-10T05:58:47;97411.78;;;19.56;100.00
70506;BME280;58032;49.820;6.274;2023-06-10T06:01:14;97415.69;;;19.58;100.00
70506;BME280;58032;49.820;6.274;2023-06-10T06:03:41;97423.19;;;19.67;100.00
70506;BME280;58032;49.820;6.274;2023-06-10T06:06:08;97420.41;;;20.03;100.00
70506;BME280;58032;49.820;6.274;2023-06-10T06:08:35;97425.56;;;20.11;100.00
70506;BME280;58032;49.820;6.274;2023-06-10T06:11:02;97423.63;;;20.30;100.00
70506;BME280;58032;49.820;6.274;2023-06-10T06:13:28;97420.34;;;20.87;100.00
70506;BME280;58032;49.820;6.274;2023-06-10T06:15:55;97420.50;;;20.64;100.00
70506;BME280;58032;49.820;6.274;2023-06-10T06:18:22;97417.50;;;21.12;100.00
70506;BME280;58032;49.820;6.274;2023-06-10T06:20:49;97423.06;;;20.74;100.00
70506;BME280;58032;49.820;6.274;2023-06-10T06:23:16;97431.44;;;20.96;100.00
70506;BME280;58032;49.820;6.274;2023-06-10T06:25:43;97419.28;;;20.90;100.00
70506;BME280;58032;49.820;6.274;2023-06-10T06:28:10;97419.75;;;20.94;100.00
70506;BME280;58032;49.820;6.274;2023-06-10T06:30:37;97425.28;;;21.61;100.00
70506;BME280;58032;49.820;6.274;2023-06-10T06:33:04;97421.84;;;21.18;100.00
70506;BME280;58032;49.820;6.274;2023-06-10T06:35:32;97424.28;;;21.58;100.00
70506;BME280;58032;49.820;6.274;2023-06-10T06:38:00;97419.31;;;21.59;100.00
70506;BME280;58032;49.820;6.274;2023-06-10T06:40:28;97421.91;;;22.20;100.00
70506;BME280;58032;49.820;6.274;2023-06-10T06:42:55;97421.47;;;22.81;100.00
70506;BME280;58032;49.820;6.274;2023-06-10T06:45:42;97425.19;;;23.08;100.00
70506;BME280;58032;49.820;6.274;2023-06-10T06:48:09;97422.75;;;22.99;100.00
70506;BME280;58032;49.820;6.274;2023-06-10T06:50:36;97423.50;;;22.53;100.00
70506;BME280;58032;49.820;6.274;2023-06-10T06:53:04;97419.75;;;22.45;100.00
70506;BME280;58032;49.820;6.274;2023-06-10T06:55:31;97426.88;;;22.71;100.00
70506;BME280;58032;49.820;6.274;2023-06-10T06:57:58;97413.59;;;22.35;100.00
70506;BME280;58032;49.820;6.274;2023-06-10T07:00:28;97414.03;;;23.04;100.00
70506;BME280;58032;49.820;6.274;2023-06-10T07:02:54;97419.28;;;23.19;100.00
70506;BME280;58032;49.820;6.274;2023-06-10T07:05:22;97426.50;;;22.09;100.00
70506;BME280;58032;49.820;6.274;2023-06-10T07:07:49;97416.38;;;23.06;100.00
70506;BME280;58032;49.820;6.274;2023-06-10T07:10:25;97424.00;;;23.57;100.00
70506;BME280;58032;49.820;6.274;2023-06-10T07:12:52;97424.88;;;23.92;100.00
70506;BME280;58032;49.820;6.274;2023-06-10T07:15:19;97417.25;;;23.68;100.00
70506;BME280;58032;49.820;6.274;2023-06-10T07:17:46;97416.69;;;24.31;100.00
70506;BME280;58032;49.820;6.274;2023-06-10T07:20:14;97414.56;;;24.66;100.00
70506;BME280;58032;49.820;6.274;2023-06-10T07:22:42;97423.84;;;24.16;100.00
70506;BME280;58032;49.820;6.274;2023-06-10T07:25:09;97421.06;;;24.45;100.00
70506;BME280;58032;49.820;6.274;2023-06-10T07:27:36;97416.16;;;23.98;100.00
70506;BME280;58032;49.820;6.274;2023-06-10T07:30:05;97418.88;;;24.03;100.00
70506;BME280;58032;49.820;6.274;2023-06-10T07:32:33;97419.50;;;24.23;100.00
70506;BME280;58032;49.820;6.274;2023-06-10T07:35:00;97420.25;;;25.01;100.00
70506;BME280;58032;49.820;6.274;2023-06-10T07:37:27;97415.13;;;25.36;95.07
70506;BME280;58032;49.820;6.274;2023-06-10T07:39:55;97417.34;;;25.80;98.34
70506;BME280;58032;49.820;6.274;2023-06-10T07:42:22;97424.38;;;26.07;94.28
70506;BME280;58032;49.820;6.274;2023-06-10T07:44:49;97426.81;;;26.48;88.35
70506;BME280;58032;49.820;6.274;2023-06-10T07:47:16;97427.28;;;26.07;83.90
70506;BME280;58032;49.820;6.274;2023-06-10T07:49:43;97427.22;;;25.34;82.35
70506;BME280;58032;49.820;6.274;2023-06-10T07:52:10;97417.41;;;25.29;91.72
70506;BME280;58032;49.820;6.274;2023-06-10T07:54:37;97429.91;;;25.61;86.28
70506;BME280;58032;49.820;6.274;2023-06-10T07:57:04;97431.13;;;25.16;86.03
70506;BME280;58032;49.820;6.274;2023-06-10T07:59:31;97424.16;;;26.65;78.12
70506;BME280;58032;49.820;6.274;2023-06-10T08:01:58;97434.63;;;25.22;77.16
70506;BME280;58032;49.820;6.274;2023-06-10T08:04:25;97433.84;;;25.79;80.89
70506;BME280;58032;49.820;6.274;2023-06-10T08:06:52;97433.19;;;26.02;86.61
70506;BME280;58032;49.820;6.274;2023-06-10T08:09:18;97428.44;;;26.88;70.56
70506;BME280;58032;49.820;6.274;2023-06-10T08:11:48;97429.03;;;27.17;72.09
70506;BME280;58032;49.820;6.274;2023-06-10T08:14:16;97428.25;;;26.78;74.28
70506;BME280;58032;49.820;6.274;2023-06-10T08:16:43;97428.03;;;27.61;69.14
70506;BME280;58032;49.820;6.274;2023-06-10T08:19:10;97428.13;;;27.86;65.80
70506;BME280;58032;49.820;6.274;2023-06-10T08:21:37;97430.94;;;28.83;61.67
70506;BME280;58032;49.820;6.274;2023-06-10T08:24:06;97428.88;;;27.94;63.66
70506;BME280;58032;49.820;6.274;2023-06-10T08:26:49;97436.34;;;26.87;60.20
70506;BME280;58032;49.820;6.274;2023-06-10T08:29:16;97429.50;;;27.85;61.63
70506;BME280;58032;49.820;6.274;2023-06-10T08:31:46;97431.59;;;28.41;57.02
70506;BME280;58032;49.820;6.274;2023-06-10T08:34:17;97423.25;;;28.45;62.24
70506;BME280;58032;49.820;6.274;2023-06-10T08:36:49;97426.84;;;27.64;61.87
70506;BME280;58032;49.820;6.274;2023-06-10T08:39:22;97430.06;;;28.40;56.61
70506;BME280;58032;49.820;6.274;2023-06-10T08:44:45;97423.06;;;28.10;58.42
70506;BME280;58032;49.820;6.274;2023-06-10T08:47:28;97428.06;;;26.91;59.32
70506;BME280;58032;49.820;6.274;2023-06-10T08:50:04;97419.78;;;28.06;58.24
70506;BME280;58032;49.820;6.274;2023-06-10T08:52:36;97426.03;;;27.79;54.94
70506;BME280;58032;49.820;6.274;2023-06-10T08:55:27;97414.88;;;28.57;53.28
70506;BME280;58032;49.820;6.274;2023-06-10T08:57:59;97415.59;;;28.65;50.71
70506;BME280;58032;49.820;6.274;2023-06-10T09:00:27;97416.88;;;28.06;54.44
70506;BME280;58032;49.820;6.274;2023-06-10T09:02:56;97418.63;;;28.01;54.40
70506;BME280;58032;49.820;6.274;2023-06-10T09:05:23;97417.09;;;28.08;54.15
70506;BME280;58032;49.820;6.274;2023-06-10T09:07:52;97411.28;;;28.08;53.72
70506;BME280;58032;49.820;6.274;2023-06-10T09:10:19;97418.34;;;28.22;48.30
70506;BME280;58032;49.820;6.274;2023-06-10T09:12:46;97406.59;;;28.86;50.86
70506;BME280;58032;49.820;6.274;2023-06-10T09:15:13;97407.59;;;29.06;50.10
70506;BME280;58032;49.820;6.274;2023-06-10T09:17:41;97411.63;;;28.20;47.36
70506;BME280;58032;49.820;6.274;2023-06-10T09:20:08;97430.00;;;27.12;49.92
70506;BME280;58032;49.820;6.274;2023-06-10T09:22:36;97412.66;;;27.43;48.13
70506;BME280;58032;49.820;6.274;2023-06-10T09:25:05;97410.63;;;27.76;46.40
70506;BME280;58032;49.820;6.274;2023-06-10T09:27:32;97423.97;;;27.41;50.27
70506;BME280;58032;49.820;6.274;2023-06-10T09:29:59;97410.41;;;28.64;47.40
70506;BME280;58032;49.820;6.274;2023-06-10T09:32:26;97421.47;;;26.60;49.33
70506;BME280;58032;49.820;6.274;2023-06-10T09:34:53;97415.31;;;27.41;51.08
70506;BME280;58032;49.820;6.274;2023-06-10T09:37:22;97417.06;;;27.28;51.05
70506;BME280;58032;49.820;6.274;2023-06-10T09:40:06;97408.38;;;27.28;50.67
70506;BME280;58032;49.820;6.274;2023-06-10T09:42:36;97411.38;;;26.30;49.61
70506;BME280;58032;49.820;6.274;2023-06-10T09:45:06;97423.84;;;25.80;50.75
70506;BME280;58032;49.820;6.274;2023-06-10T09:47:34;97412.22;;;26.69;48.84
70506;BME280;58032;49.820;6.274;2023-06-10T09:50:01;97417.22;;;26.01;52.25
70506;BME280;58032;49.820;6.274;2023-06-10T09:52:29;97420.22;;;25.80;54.16
70506;BME280;58032;49.820;6.274;2023-06-10T09:55:01;97417.47;;;26.11;52.30
70506;BME280;58032;49.820;6.274;2023-06-10T09:57:32;97400.28;;;26.57;50.42
70506;BME280;58032;49.820;6.274;2023-06-10T10:00:04;97412.59;;;26.50;53.21
70506;BME280;58032;49.820;6.274;2023-06-10T10:02:48;97407.78;;;26.00;49.36
70506;BME280;58032;49.820;6.274;2023-06-10T10:05:17;97405.31;;;26.04;48.38
70506;BME280;58032;49.820;6.274;2023-06-10T10:07:45;97409.97;;;26.07;50.07
70506;BME280;58032;49.820;6.274;2023-06-10T10:10:13;97410.75;;;26.08;46.04
70506;BME280;58032;49.820;6.274;2023-06-10T10:12:42;97430.97;;;26.16;42.37
70506;BME280;58032;49.820;6.274;2023-06-10T10:15:10;97424.72;;;25.96;41.78
70506;BME280;58032;49.820;6.274;2023-06-10T10:17:40;97414.28;;;25.49;41.82
70506;BME280;58032;49.820;6.274;2023-06-10T10:20:08;97411.72;;;26.18;44.70
70506;BME280;58032;49.820;6.274;2023-06-10T10:22:40;97413.56;;;26.00;41.23
70506;BME280;58032;49.820;6.274;2023-06-10T10:25:14;97407.94;;;26.39;42.07
70506;BME280;58032;49.820;6.274;2023-06-10T10:27:53;97400.09;;;26.70;43.86
70506;BME280;58032;49.820;6.274;2023-06-10T10:30:22;97411.41;;;26.53;42.18
70506;BME280;58032;49.820;6.274;2023-06-10T10:35:21;97406.09;;;26.05;43.01
70506;BME280;58032;49.820;6.274;2023-06-10T10:37:52;97402.94;;;26.39;45.26
70506;BME280;58032;49.820;6.274;2023-06-10T10:40:23;97410.25;;;26.41;45.56
70506;BME280;58032;49.820;6.274;2023-06-10T10:42:52;97408.75;;;26.63;43.66
70506;BME280;58032;49.820;6.274;2023-06-10T10:45:21;97399.56;;;26.80;44.76
70506;BME280;58032;49.820;6.274;2023-06-10T10:47:52;97399.53;;;27.03;45.41
70506;BME280;58032;49.820;6.274;2023-06-10T10:50:20;97402.00;;;27.38;43.67
70506;BME280;58032;49.820;6.274;2023-06-10T10:52:51;97403.78;;;27.02;42.91
70506;BME280;58032;49.820;6.274;2023-06-10T10:55:19;97409.69;;;26.50;43.89
70506;BME280;58032;49.820;6.274;2023-06-10T10:57:56;97405.03;;;26.23;44.18
70506;BME280;58032;49.820;6.274;2023-06-10T11:00:34;97407.53;;;26.35;44.42
70506;BME280;58032;49.820;6.274;2023-06-10T11:03:06;97401.41;;;26.46;43.74
70506;BME280;58032;49.820;6.274;2023-06-10T11:05:45;97387.22;;;26.87;42.33
70506;BME280;58032;49.820;6.274;2023-06-10T11:10:57;97388.34;;;27.38;44.49
70506;BME280;58032;49.820;6.274;2023-06-10T11:13:26;97391.56;;;28.22;42.08
70506;BME280;58032;49.820;6.274;2023-06-10T11:15:58;97389.34;;;28.63;41.24
70506;BME280;58032;49.820;6.274;2023-06-10T11:18:27;97385.19;;;29.25;40.33
70506;BME280;58032;49.820;6.274;2023-06-10T11:21:03;97384.34;;;28.64;38.85
70506;BME280;58032;49.820;6.274;2023-06-10T11:23:38;97391.22;;;27.38;42.82
70506;BME280;58032;49.820;6.274;2023-06-10T11:31:33;97375.56;;;27.64;42.83
70506;BME280;58032;49.820;6.274;2023-06-10T11:34:04;97374.50;;;27.06;44.70
70506;BME280;58032;49.820;6.274;2023-06-10T11:36:34;97378.88;;;27.53;44.83
70506;BME280;58032;49.820;6.274;2023-06-10T11:39:04;97370.56;;;28.97;44.08
70506;BME280;58032;49.820;6.274;2023-06-10T11:41:33;97370.28;;;27.86;44.96
70506;BME280;58032;49.820;6.274;2023-06-10T11:44:07;97376.13;;;26.08;49.72
70506;BME280;58032;49.820;6.274;2023-06-10T11:46:35;97381.59;;;25.90;50.19
70506;BME280;58032;49.820;6.274;2023-06-10T11:49:03;97372.94;;;26.66;46.84
70506;BME280;58032;49.820;6.274;2023-06-10T11:51:40;97370.78;;;27.28;45.02
70506;BME280;58032;49.820;6.274;2023-06-10T11:54:11;97382.75;;;26.55;47.81
70506;BME280;58032;49.820;6.274;2023-06-10T11:56:38;97374.28;;;27.27;44.10
70506;BME280;58032;49.820;6.274;2023-06-10T11:59:06;97363.09;;;27.46;41.37
70506;BME280;58032;49.820;6.274;2023-06-10T12:01:40;97372.13;;;28.40;40.15
70506;BME280;58032;49.820;6.274;2023-06-10T12:04:11;97364.25;;;28.66;37.52
70506;BME280;58032;49.820;6.274;2023-06-10T12:06:41;97366.97;;;28.31;36.43
70506;BME280;58032;49.820;6.274;2023-06-10T12:12:03;97363.44;;;30.95;34.40
70506;BME280;58032;49.820;6.274;2023-06-10T12:14:57;97369.19;;;29.76;34.50
70506;BME280;58032;49.820;6.274;2023-06-10T12:19:58;97362.06;;;27.67;39.15
70506;BME280;58032;49.820;6.274;2023-06-10T12:22:26;97358.41;;;30.04;38.22
70506;BME280;58032;49.820;6.274;2023-06-10T12:24:58;97356.59;;;29.03;36.15
70506;BME280;58032;49.820;6.274;2023-06-10T12:27:30;97355.69;;;28.76;35.44
70506;BME280;58032;49.820;6.274;2023-06-10T12:30:09;97353.31;;;28.82;35.07
70506;BME280;58032;49.820;6.274;2023-06-10T12:35:08;97358.09;;;26.54;37.51
70506;BME280;58032;49.820;6.274;2023-06-10T12:37:36;97369.31;;;25.90;37.45
70506;BME280;58032;49.820;6.274;2023-06-10T12:40:05;97361.06;;;26.02;38.82
70506;BME280;58032;49.820;6.274;2023-06-10T12:42:33;97360.78;;;27.29;38.83
70506;BME280;58032;49.820;6.274;2023-06-10T12:45:03;97362.13;;;28.00;34.61
70506;BME280;58032;49.820;6.274;2023-06-10T12:47:35;97353.41;;;28.66;33.33
70506;BME280;58032;49.820;6.274;2023-06-10T12:50:05;97357.03;;;29.17;32.58
70506;BME280;58032;49.820;6.274;2023-06-10T12:52:32;97354.25;;;27.93;34.41
70506;BME280;58032;49.820;6.274;2023-06-10T12:54:59;97352.84;;;29.11;33.54
70506;BME280;58032;49.820;6.274;2023-06-10T12:57:27;97367.25;;;28.17;33.61
70506;BME280;58032;49.820;6.274;2023-06-10T12:59:56;97348.84;;;28.55;32.93
70506;BME280;58032;49.820;6.274;2023-06-10T13:02:31;97351.75;;;28.30;34.14
70506;BME280;58032;49.820;6.274;2023-06-10T13:04:58;97358.72;;;26.99;35.01
70506;BME280;58032;49.820;6.274;2023-06-10T13:07:25;97348.69;;;26.69;35.19
70506;BME280;58032;49.820;6.274;2023-06-10T13:09:53;97349.03;;;29.26;32.87
70506;BME280;58032;49.820;6.274;2023-06-10T13:12:20;97348.00;;;29.83;31.25
70506;BME280;58032;49.820;6.274;2023-06-10T13:14:53;97343.81;;;30.76;30.55
70506;BME280;58032;49.820;6.274;2023-06-10T13:17:20;97340.53;;;30.35;31.27
70506;BME280;58032;49.820;6.274;2023-06-10T13:19:47;97338.16;;;30.78;29.17
70506;BME280;58032;49.820;6.274;2023-06-10T13:22:15;97342.09;;;30.36;30.92
70506;BME280;58032;49.820;6.274;2023-06-10T13:24:42;97337.50;;;30.33;30.86
70506;BME280;58032;49.820;6.274;2023-06-10T13:27:10;97344.91;;;29.54;29.70